createdAt,value
2022-12-02T00:00:26.302Z,5.10
2022-12-02T00:02:57.834Z,5.10
2022-12-02T00:05:30.646Z,5.10
2022-12-02T00:08:01.272Z,5.10
2022-12-02T00:10:31.255Z,5.10
2022-12-02T00:13:11.516Z,5.10
2022-12-02T00:15:42.972Z,5.00
2022-12-02T00:18:11.626Z,5.00
2022-12-02T00:23:09.650Z,5.00
2022-12-02T00:25:37.465Z,5.00
2022-12-02T00:28:05.485Z,5.00
2022-12-02T00:30:33.231Z,5.00
2022-12-02T00:33:00.942Z,5.00
2022-12-02T00:35:28.686Z,4.90
2022-12-02T00:37:58.691Z,4.90
2022-12-02T00:40:26.445Z,4.80
2022-12-02T00:42:54.509Z,4.90
2022-12-02T00:45:40.028Z,4.90
2022-12-02T00:48:07.868Z,4.90
2022-12-02T00:50:35.705Z,4.90
2022-12-02T00:53:04.787Z,4.90
2022-12-02T00:58:00.654Z,4.90
2022-12-02T05:03:51.084Z,4.60
2022-12-02T05:06:19.036Z,4.60
2022-12-02T05:08:46.753Z,4.60
2022-12-02T05:11:15.624Z,4.50
2022-12-02T05:13:43.429Z,4.50
2022-12-02T05:16:11.376Z,4.60
2022-12-02T05:18:40.553Z,4.60
2022-12-02T05:21:08.325Z,4.60
2022-12-02T05:23:36.110Z,4.60
2022-12-02T05:26:03.823Z,4.60
2022-12-02T05:28:31.600Z,4.60
2022-12-02T05:30:59.416Z,4.60
2022-12-02T05:33:27.207Z,4.60
2022-12-02T05:35:56.420Z,4.40
2022-12-02T05:38:24.136Z,4.40
2022-12-02T05:40:53.334Z,4.40
2022-12-02T05:43:23.065Z,4.40
2022-12-02T05:45:50.839Z,4.40
2022-12-02T05:48:20.555Z,4.40
2022-12-02T05:50:48.771Z,4.30
2022-12-02T05:53:24.358Z,4.30
2022-12-02T05:55:52.221Z,4.20
2022-12-02T05:58:20.705Z,4.20
2022-12-02T06:00:54.070Z,4.20
2022-12-02T06:03:22.911Z,4.20
2022-12-02T06:05:53.219Z,4.20
2022-12-02T06:08:24.518Z,4.30
2022-12-02T06:10:56.690Z,4.30
2022-12-02T06:13:27.226Z,4.30
2022-12-02T06:15:55.958Z,4.20
2022-12-02T06:18:27.948Z,4.10
2022-12-02T06:20:58.926Z,4.10
2022-12-02T06:23:30.651Z,4.10
2022-12-02T06:26:00.072Z,4.10
2022-12-02T06:28:30.471Z,4.00
2022-12-02T06:31:04.653Z,4.00
2022-12-02T06:33:34.354Z,4.10
2022-12-02T06:36:05.848Z,4.00
2022-12-02T06:38:43.838Z,4.10
2022-12-02T06:41:16.837Z,4.00
2022-12-02T06:44:05.686Z,4.00
2022-12-02T06:46:35.196Z,4.00
2022-12-02T06:51:31.997Z,4.00
2022-12-02T06:54:01.144Z,3.90
2022-12-02T06:56:30.901Z,3.90
2022-12-02T06:59:02.426Z,3.90
2022-12-02T07:01:33.022Z,3.90
2022-12-02T07:04:31.135Z,4.00
2022-12-02T07:07:03.228Z,3.90
2022-12-02T07:09:38.007Z,3.90
2022-12-02T07:12:13.256Z,3.90
2022-12-02T07:14:46.635Z,3.80
2022-12-02T07:17:22.831Z,3.90
2022-12-02T07:19:57.891Z,3.90
2022-12-02T07:22:32.536Z,3.90
2022-12-02T07:25:28.011Z,3.90
2022-12-02T07:27:55.885Z,3.80
2022-12-02T07:30:26.577Z,3.90
2022-12-02T07:32:54.988Z,3.80
2022-12-02T07:35:23.524Z,3.80
2022-12-02T07:37:51.943Z,3.80
2022-12-02T07:40:21.981Z,3.80
2022-12-02T07:42:49.949Z,3.80
2022-12-02T07:45:20.545Z,3.80
2022-12-02T07:47:48.451Z,3.70
2022-12-02T07:50:17.826Z,3.70
2022-12-02T07:55:13.780Z,3.80
2022-12-02T07:57:42.914Z,3.80
2022-12-02T08:00:12.118Z,3.80
2022-12-02T08:02:40.286Z,3.80
2022-12-02T08:05:09.464Z,3.70
2022-12-02T08:07:37.303Z,3.70
2022-12-02T08:10:06.070Z,3.70
2022-12-02T08:12:33.843Z,3.70
2022-12-02T08:15:03.257Z,3.70
2022-12-02T08:17:31.078Z,3.70
2022-12-02T08:22:29.405Z,3.80
2022-12-02T08:24:57.258Z,3.70
2022-12-02T08:27:25.320Z,3.70
2022-12-02T08:29:53.367Z,3.70
2022-12-02T08:32:23.838Z,3.60
2022-12-02T08:34:51.883Z,3.60
2022-12-02T08:37:19.932Z,3.70
2022-12-02T08:39:47.682Z,3.70
2022-12-02T08:42:15.532Z,3.60
2022-12-02T08:44:43.359Z,3.60
2022-12-02T08:47:11.265Z,3.60
2022-12-02T08:49:40.348Z,3.60
2022-12-02T08:52:11.103Z,3.60
2022-12-02T08:54:40.911Z,3.60
2022-12-02T08:57:08.730Z,3.50
2022-12-02T08:59:36.536Z,3.50
2022-12-02T09:02:04.384Z,3.50
2022-12-02T09:04:33.298Z,3.60
2022-12-02T09:07:03.158Z,3.60
2022-12-02T09:09:30.928Z,3.50
2022-12-02T09:11:58.762Z,3.50
2022-12-02T09:14:26.599Z,3.60
2022-12-02T09:16:54.393Z,3.50
2022-12-02T09:19:22.193Z,3.60
2022-12-02T09:21:49.937Z,3.60
2022-12-02T09:24:25.516Z,3.60
2022-12-02T09:26:53.241Z,3.60
2022-12-02T09:29:21.063Z,3.60
2022-12-02T09:31:49.268Z,3.70
2022-12-02T09:34:17.044Z,3.70
2022-12-02T09:36:44.789Z,3.70
2022-12-02T09:39:12.642Z,3.70
2022-12-02T09:41:41.933Z,3.70
2022-12-02T09:44:22.059Z,3.80
2022-12-02T09:46:50.001Z,3.80
2022-12-02T09:49:18.076Z,3.70
2022-12-02T09:51:46.024Z,3.70
2022-12-02T09:54:16.991Z,3.70
2022-12-02T09:56:46.056Z,3.70
2022-12-02T09:59:17.677Z,3.70
2022-12-02T10:01:47.961Z,3.70
2022-12-02T10:04:18.135Z,3.70
2022-12-02T10:06:46.008Z,3.70
2022-12-02T10:09:17.681Z,3.70
2022-12-02T10:14:16.132Z,3.70
2022-12-02T10:16:44.751Z,3.70
2022-12-02T10:19:17.477Z,3.80
2022-12-02T10:21:45.378Z,3.80
2022-12-02T10:24:13.501Z,3.80
2022-12-02T10:26:46.940Z,3.80
2022-12-02T10:29:19.263Z,3.90
2022-12-02T10:31:58.803Z,3.90
2022-12-02T10:34:28.716Z,3.90
2022-12-02T10:39:31.416Z,3.80
2022-12-02T10:42:21.233Z,3.90
2022-12-02T10:45:08.424Z,3.80
2022-12-02T10:47:36.259Z,3.80
2022-12-02T10:50:06.110Z,3.80
2022-12-02T10:52:36.423Z,3.80
2022-12-02T10:55:06.006Z,3.90
2022-12-02T10:57:35.819Z,3.90
2022-12-02T11:00:13.892Z,3.80
2022-12-02T11:02:46.216Z,3.90
2022-12-02T11:05:18.413Z,3.90
2022-12-02T11:07:58.065Z,3.90
2022-12-02T11:10:28.962Z,3.90
2022-12-02T11:13:24.533Z,3.90
2022-12-02T11:15:53.978Z,3.90
2022-12-02T11:18:52.515Z,3.90
2022-12-02T11:21:38.983Z,3.80
2022-12-02T11:24:35.851Z,3.80
2022-12-02T11:27:18.384Z,3.80
2022-12-02T11:30:16.422Z,3.70
2022-12-02T11:32:52.239Z,3.80
2022-12-02T11:35:58.276Z,3.80
2022-12-02T11:38:28.561Z,3.80
2022-12-02T11:41:01.244Z,3.80
2022-12-02T11:43:42.957Z,3.80
2022-12-02T11:46:11.430Z,3.80
2022-12-02T11:48:47.546Z,3.80
2022-12-02T11:51:40.877Z,3.80
2022-12-02T11:54:17.102Z,3.80
2022-12-02T11:56:47.201Z,3.80
2022-12-02T11:59:22.420Z,3.80
2022-12-02T12:01:50.644Z,4.90
2022-12-02T12:04:26.728Z,3.80
2022-12-02T12:06:56.502Z,3.90
2022-12-02T12:09:24.714Z,3.90
2022-12-02T12:12:16.706Z,3.90
2022-12-02T12:14:59.253Z,3.90
2022-12-02T12:17:46.620Z,3.90
2022-12-02T12:20:44.891Z,3.90
2022-12-02T12:23:32.469Z,3.80
2022-12-02T12:26:00.570Z,3.90
2022-12-02T12:28:30.657Z,3.90
2022-12-02T12:31:00.100Z,3.90
2022-12-02T12:33:28.688Z,3.90
2022-12-02T12:35:59.281Z,3.90
2022-12-02T12:38:30.965Z,3.90
2022-12-02T12:46:04.563Z,3.80
2022-12-02T12:48:32.435Z,3.80
2022-12-02T12:51:01.556Z,3.80
2022-12-02T12:53:29.566Z,3.80
2022-12-02T12:56:01.043Z,3.80
2022-12-02T12:58:29.472Z,3.80
2022-12-02T13:00:57.427Z,3.90
2022-12-02T13:03:25.430Z,3.90
2022-12-02T13:05:55.860Z,3.90
2022-12-02T13:10:53.940Z,3.90
2022-12-02T13:13:21.700Z,3.90
2022-12-02T13:15:49.586Z,3.90
2022-12-02T13:18:17.511Z,3.90
2022-12-02T13:20:45.404Z,3.90
2022-12-02T13:29:18.343Z,3.90
2022-12-02T16:02:27.315Z,3.80
2022-12-02T16:04:55.170Z,3.80
2022-12-02T16:07:23.047Z,3.70
2022-12-02T16:12:19.798Z,3.70
2022-12-02T16:14:53.643Z,3.70
2022-12-02T16:17:22.967Z,3.70
2022-12-02T16:19:52.144Z,3.70
2022-12-02T16:22:21.913Z,3.70
2022-12-02T16:24:49.914Z,3.70
2022-12-02T16:27:18.104Z,3.70
2022-12-02T16:29:47.799Z,3.70
2022-12-02T16:32:37.989Z,3.70
2022-12-02T16:35:11.378Z,3.80
2022-12-02T16:40:12.216Z,3.80
2022-12-02T16:42:39.998Z,3.80
2022-12-02T16:45:09.031Z,3.70
2022-12-02T16:47:36.845Z,3.80
2022-12-02T16:50:05.205Z,3.70
2022-12-02T16:52:34.426Z,3.70
2022-12-02T16:55:02.997Z,3.60
2022-12-02T16:57:30.958Z,3.60
2022-12-02T16:59:58.804Z,3.60
2022-12-02T17:02:31.905Z,3.70
2022-12-02T17:05:00.170Z,3.70
2022-12-02T17:07:30.856Z,3.70
2022-12-02T17:10:00.223Z,3.60
2022-12-02T17:12:27.941Z,3.60
2022-12-02T17:14:55.785Z,3.60
2022-12-02T17:17:44.864Z,3.60
2022-12-02T17:22:39.936Z,3.60
2022-12-02T17:25:10.690Z,3.60
2022-12-02T17:30:08.190Z,3.60
2022-12-02T17:32:36.049Z,3.60
2022-12-02T17:35:05.751Z,3.60
2022-12-02T17:37:33.832Z,3.60
2022-12-02T17:40:01.566Z,3.50
2022-12-02T17:42:31.021Z,3.50
2022-12-02T17:44:58.759Z,3.40
2022-12-02T17:47:26.576Z,3.40
2022-12-02T17:52:22.719Z,3.30
2022-12-02T17:54:51.310Z,3.30
2022-12-02T17:57:19.600Z,3.30
2022-12-02T17:59:48.742Z,3.20
2022-12-02T18:02:16.650Z,3.30
2022-12-02T18:04:44.994Z,3.20
2022-12-02T18:07:13.160Z,3.20
2022-12-02T18:09:41.633Z,3.20
2022-12-02T18:12:10.687Z,3.20
2022-12-02T18:14:38.477Z,3.20
2022-12-02T18:17:07.915Z,3.20
2022-12-02T18:19:36.113Z,3.10
2022-12-02T18:22:03.928Z,3.10
2022-12-02T18:24:31.697Z,3.10
2022-12-02T18:26:59.502Z,3.00
2022-12-02T18:29:27.277Z,3.00
2022-12-02T18:31:55.071Z,3.00
2022-12-02T18:34:24.351Z,3.00
2022-12-02T18:39:20.407Z,3.00
2022-12-02T18:41:48.128Z,3.10
2022-12-02T18:44:15.891Z,3.00
2022-12-02T18:46:43.741Z,3.00
2022-12-02T18:49:13.036Z,3.00
2022-12-02T18:51:42.086Z,3.00
2022-12-02T18:54:09.834Z,3.00
2022-12-02T18:56:37.612Z,2.90
2022-12-02T18:59:05.482Z,2.90
2022-12-02T19:01:34.450Z,2.90
2022-12-02T19:04:02.467Z,2.90
2022-12-02T19:06:30.215Z,2.90
2022-12-02T19:08:59.626Z,0.90
2022-12-02T19:11:27.444Z,2.80
2022-12-02T19:13:55.192Z,2.80
2022-12-02T19:16:22.996Z,2.80
2022-12-02T19:18:51.270Z,2.90
2022-12-02T19:21:24.570Z,2.80
2022-12-02T19:23:52.764Z,2.80
2022-12-02T19:26:23.190Z,2.70
2022-12-02T19:28:51.503Z,2.70
2022-12-02T19:31:19.588Z,2.70
2022-12-02T19:33:47.435Z,2.70
2022-12-02T19:36:15.257Z,2.70
2022-12-02T19:38:43.032Z,2.70
2022-12-02T19:41:10.912Z,2.60
2022-12-02T19:43:40.035Z,2.60
2022-12-02T19:46:07.959Z,2.70
2022-12-02T19:48:35.766Z,2.70
2022-12-02T19:51:03.585Z,2.70
2022-12-02T19:53:31.503Z,2.70
2022-12-02T19:55:59.365Z,2.70
2022-12-02T19:58:27.107Z,2.70
2022-12-02T20:00:56.196Z,2.70
2022-12-02T20:03:24.078Z,2.70
2022-12-02T20:05:54.948Z,2.70
2022-12-02T20:08:22.854Z,2.70
2022-12-02T20:10:50.702Z,2.60
2022-12-02T20:13:18.827Z,2.60
2022-12-02T20:15:46.616Z,2.60
2022-12-02T20:18:15.986Z,2.60
2022-12-02T20:20:44.023Z,2.60
2022-12-02T20:23:11.804Z,2.60
2022-12-02T20:25:39.821Z,2.60
2022-12-02T20:28:07.634Z,2.60
2022-12-02T20:30:36.147Z,2.60
2022-12-02T20:33:03.967Z,2.60
2022-12-02T20:35:33.260Z,2.60
2022-12-02T20:38:02.237Z,4.10
2022-12-02T20:40:30.079Z,2.60
2022-12-02T20:42:57.878Z,2.50
2022-12-02T20:45:25.943Z,2.50
2022-12-02T20:47:53.710Z,2.50
2022-12-02T20:50:21.737Z,2.50
2022-12-02T20:52:53.865Z,2.50
2022-12-02T20:55:22.187Z,2.50
2022-12-02T20:57:49.967Z,2.50
2022-12-02T21:00:19.272Z,2.50
2022-12-02T21:02:47.269Z,2.50
2022-12-02T21:05:15.198Z,2.50
2022-12-02T21:07:43.001Z,2.50
2022-12-02T21:10:13.109Z,2.50
2022-12-02T21:12:43.256Z,2.50
2022-12-02T21:17:39.857Z,2.50
2022-12-02T21:20:08.838Z,2.60
2022-12-02T21:22:36.588Z,2.60
2022-12-02T21:25:04.418Z,2.60
2022-12-02T21:27:33.533Z,2.60
2022-12-02T21:30:01.637Z,2.60
2022-12-02T21:32:29.375Z,2.60
2022-12-02T21:34:57.122Z,2.60
2022-12-02T21:37:25.140Z,2.60
2022-12-02T21:39:53.013Z,2.60
2022-12-02T21:42:20.801Z,2.50
2022-12-02T21:44:50.235Z,2.50
2022-12-02T21:47:18.198Z,2.50
2022-12-02T21:49:49.146Z,2.50
2022-12-02T21:52:17.499Z,2.50
2022-12-02T21:54:45.331Z,2.60
2022-12-02T21:57:13.140Z,2.50
2022-12-02T21:59:40.846Z,2.60
2022-12-02T22:02:13.793Z,2.70
2022-12-02T22:04:43.214Z,2.70
2022-12-02T22:07:29.534Z,2.70
2022-12-02T22:09:57.350Z,2.70
2022-12-02T22:12:25.332Z,2.70
2022-12-02T22:14:53.373Z,2.60
2022-12-02T22:19:55.936Z,2.60
2022-12-02T22:25:00.943Z,2.60
2022-12-02T22:27:29.426Z,2.60
2022-12-02T22:29:59.207Z,2.60
2022-12-02T22:34:58.023Z,1.60
2022-12-02T22:37:27.874Z,2.60
2022-12-02T22:39:55.629Z,2.60
2022-12-02T22:42:23.967Z,2.60
2022-12-02T22:44:52.132Z,2.60
2022-12-02T22:47:20.136Z,2.60
2022-12-02T22:49:49.382Z,2.60
2022-12-02T22:52:17.390Z,2.60
2022-12-02T22:54:45.295Z,2.50
2022-12-02T22:57:13.164Z,2.50
2022-12-02T22:59:41.273Z,2.50
2022-12-02T23:02:16.902Z,2.50
2022-12-02T23:04:45.441Z,2.50
2022-12-02T23:07:15.910Z,2.50
2022-12-02T23:09:44.925Z,2.50
2022-12-02T23:12:12.746Z,2.50
2022-12-02T23:14:40.663Z,2.50
2022-12-02T23:19:42.067Z,2.50
2022-12-02T23:27:26.609Z,2.50
2022-12-02T23:29:54.402Z,2.50
2022-12-02T23:34:50.837Z,2.50
2022-12-02T23:37:19.011Z,2.50
2022-12-02T23:39:50.488Z,2.50
2022-12-02T23:42:19.759Z,2.50
2022-12-02T23:44:52.687Z,2.50
2022-12-02T23:47:20.687Z,2.50
2022-12-02T23:49:48.661Z,2.50
2022-12-02T23:52:16.535Z,2.50
2022-12-02T23:54:44.329Z,2.50
2022-12-02T23:57:12.058Z,2.50
2022-12-02T23:59:41.142Z,2.50
